createdAt,value
2019-01-19T00:00:16.115Z,6.00
2019-01-19T00:02:56.987Z,3.60
2019-01-19T00:06:11.340Z,5.00
2019-01-19T00:09:17.692Z,4.00
2019-01-19T00:12:23.805Z,6.00
2019-01-19T00:15:18.417Z,4.00
2019-01-19T00:18:34.695Z,5.50
2019-01-19T00:21:42.866Z,2.67
2019-01-19T00:25:00.878Z,4.00
2019-01-19T00:28:05.896Z,2.00
2019-01-19T00:31:06.017Z,4.00
2019-01-19T00:34:00.957Z,4.00
2019-01-19T00:37:09.715Z,3.33
2019-01-19T00:40:17.444Z,4.00
2019-01-19T00:43:15.335Z,2.00
2019-01-19T00:46:21.667Z,4.00
2019-01-19T00:49:10.826Z,4.40
2019-01-19T00:52:23.334Z,4.00
2019-01-19T00:55:24.482Z,4.00
2019-01-19T00:58:29.336Z,4.00
2019-01-19T01:01:53.457Z,2.80
2019-01-19T01:05:02.240Z,2.67
2019-01-19T01:08:01.862Z,3.33
2019-01-19T01:10:46.864Z,2.00
2019-01-19T01:13:36.666Z,2.00
2019-01-19T01:16:44.067Z,2.00
2019-01-19T01:20:01.965Z,2.00
2019-01-19T01:23:26.809Z,3.33
2019-01-19T01:26:46.498Z,2.00
2019-01-19T01:29:56.063Z,2.40
2019-01-19T01:33:08.142Z,2.00
2019-01-19T01:36:32.226Z,4.00
2019-01-19T01:39:41.610Z,2.67
2019-01-19T01:42:53.301Z,4.00
2019-01-19T01:46:00.968Z,2.00
2019-01-19T01:48:56.365Z,2.00
2019-01-19T01:52:19.011Z,2.00
2019-01-19T01:55:28.406Z,3.33
2019-01-19T01:58:43.926Z,2.00
2019-01-19T02:02:03.783Z,1.20
2019-01-19T02:05:15.643Z,2.67
2019-01-19T02:08:02.267Z,2.00
2019-01-19T02:11:10.822Z,3.20
2019-01-19T02:14:16.622Z,2.00
2019-01-19T02:17:28.403Z,3.20
2019-01-19T02:20:34.966Z,4.80
2019-01-19T02:23:28.807Z,3.33
2019-01-19T02:26:55.718Z,2.00
2019-01-19T02:29:56.534Z,0.40
2019-01-19T02:32:49.891Z,2.00
2019-01-19T02:36:25.793Z,1.33
2019-01-19T02:39:48.059Z,2.00
2019-01-19T02:43:07.185Z,1.60
2019-01-19T02:46:03.050Z,2.00
2019-01-19T02:49:02.120Z,2.00
2019-01-19T02:52:20.267Z,2.00
2019-01-19T02:55:27.693Z,2.00
2019-01-19T02:58:26.352Z,2.00
2019-01-19T03:01:40.052Z,2.00
2019-01-19T03:04:21.354Z,2.00
2019-01-19T03:07:39.736Z,2.67
2019-01-19T03:10:53.841Z,2.00
2019-01-19T03:13:58.146Z,2.40
2019-01-19T03:17:00.359Z,2.00
2019-01-19T03:19:57.536Z,2.00
2019-01-19T03:23:13.014Z,2.00
2019-01-19T03:26:43.359Z,2.00
2019-01-19T03:29:46.926Z,1.60
2019-01-19T03:32:53.276Z,1.33
2019-01-19T03:35:39.678Z,0.00
2019-01-19T03:38:40.395Z,2.00
2019-01-19T03:41:40.376Z,2.00
2019-01-19T03:44:57.891Z,2.00
2019-01-19T03:48:05.514Z,0.67
2019-01-19T03:51:07.236Z,3.33
2019-01-19T03:53:58.286Z,2.00
2019-01-19T03:57:08.260Z,0.40
2019-01-19T04:00:31.077Z,2.40
2019-01-19T04:04:02.388Z,2.00
2019-01-19T04:07:11.683Z,4.00
2019-01-19T04:10:21.132Z,2.00
2019-01-19T04:13:33.176Z,2.00
2019-01-19T04:16:43.039Z,1.60
2019-01-19T04:19:54.865Z,2.00
2019-01-19T04:22:48.098Z,2.00
2019-01-19T04:25:33.643Z,2.40
2019-01-19T04:28:06.341Z,2.00
2019-01-19T04:30:38.575Z,2.00
2019-01-19T04:33:10.509Z,4.00
2019-01-19T04:35:45.044Z,1.60
2019-01-19T04:38:17.145Z,2.00
2019-01-19T04:40:49.095Z,4.00
2019-01-19T04:43:21.090Z,2.00
2019-01-19T04:45:57.141Z,2.00
2019-01-19T04:48:30.488Z,3.20
2019-01-19T04:51:02.595Z,2.00
2019-01-19T04:53:34.826Z,2.00
2019-01-19T04:56:06.560Z,3.33
2019-01-19T04:58:38.497Z,2.00
2019-01-19T05:01:10.492Z,2.00
2019-01-19T05:03:41.639Z,2.00
2019-01-19T05:06:20.458Z,2.00
2019-01-19T05:08:52.562Z,2.00
2019-01-19T05:11:24.620Z,0.40
2019-01-19T05:13:58.205Z,2.00
2019-01-19T05:16:30.438Z,2.00
2019-01-19T05:19:01.622Z,2.00
2019-01-19T05:21:32.806Z,2.00
2019-01-19T05:24:04.960Z,3.60
2019-01-19T05:26:36.926Z,2.00
2019-01-19T05:29:08.219Z,2.00
2019-01-19T05:31:39.356Z,2.67
2019-01-19T05:34:10.516Z,4.00
2019-01-19T05:36:42.905Z,2.00
2019-01-19T05:39:14.949Z,0.00
2019-01-19T05:41:46.966Z,2.00
2019-01-19T05:44:18.174Z,2.00
2019-01-19T05:46:52.247Z,2.00
2019-01-19T05:49:24.194Z,1.20
2019-01-19T05:51:56.445Z,2.00
2019-01-19T05:54:28.515Z,2.00
2019-01-19T05:57:02.970Z,2.00
2019-01-19T05:59:35.026Z,2.00
2019-01-19T06:02:09.141Z,2.00
2019-01-19T06:04:40.237Z,0.00
2019-01-19T06:07:14.693Z,2.00
2019-01-19T06:09:45.937Z,2.00
2019-01-19T06:12:19.614Z,3.33
2019-01-19T06:14:51.807Z,1.60
2019-01-19T06:17:23.861Z,0.00
2019-01-19T06:19:55.597Z,2.00
2019-01-19T06:22:26.738Z,2.00
2019-01-19T06:24:58.941Z,2.00
2019-01-19T06:27:34.077Z,4.00
2019-01-19T06:30:09.511Z,2.00
2019-01-19T06:32:41.981Z,2.00
2019-01-19T06:35:13.236Z,2.00
2019-01-19T06:37:48.219Z,2.00
2019-01-19T06:40:20.325Z,3.60
2019-01-19T06:42:51.583Z,2.00
2019-01-19T06:45:25.829Z,2.00
2019-01-19T06:48:00.187Z,2.00
2019-01-19T06:50:32.164Z,2.00
2019-01-19T06:53:03.651Z,2.00
2019-01-19T06:55:37.126Z,1.20
2019-01-19T06:58:09.088Z,1.60
2019-01-19T07:00:41.210Z,2.00
2019-01-19T07:03:12.338Z,2.00
2019-01-19T07:05:43.598Z,2.00
2019-01-19T07:08:15.552Z,2.00
2019-01-19T07:11:00.879Z,2.00
2019-01-19T07:13:32.955Z,4.00
2019-01-19T07:16:08.668Z,2.00
2019-01-19T07:18:40.920Z,0.80
2019-01-19T07:21:12.987Z,1.20
2019-01-19T07:23:46.343Z,0.00
2019-01-19T07:26:19.507Z,1.60
2019-01-19T07:28:56.252Z,3.20
2019-01-19T07:31:28.245Z,2.67
2019-01-19T07:34:02.760Z,2.67
2019-01-19T07:36:36.417Z,2.00
2019-01-19T07:39:09.001Z,2.00
2019-01-19T07:41:40.991Z,2.00
2019-01-19T07:44:15.696Z,2.00
2019-01-19T07:46:47.186Z,2.67
2019-01-19T07:49:22.167Z,2.40
2019-01-19T07:51:54.247Z,0.80
2019-01-19T07:54:26.571Z,1.20
2019-01-19T07:56:57.722Z,2.00
2019-01-19T07:59:28.955Z,3.33
2019-01-19T08:02:02.636Z,2.00
2019-01-19T08:04:33.619Z,4.00
2019-01-19T08:07:06.037Z,0.00
2019-01-19T08:09:37.348Z,4.00
2019-01-19T08:12:08.473Z,2.00
2019-01-19T08:14:41.173Z,2.67
2019-01-19T08:17:12.659Z,2.00
2019-01-19T08:19:45.313Z,4.00
2019-01-19T08:22:16.582Z,2.00
2019-01-19T08:24:48.176Z,4.00
2019-01-19T08:27:19.639Z,2.67
2019-01-19T08:29:52.230Z,4.00
2019-01-19T08:32:27.408Z,2.00
2019-01-19T08:34:58.639Z,2.00
2019-01-19T08:37:33.183Z,4.00
2019-01-19T08:40:05.461Z,1.60
2019-01-19T08:42:40.998Z,4.00
2019-01-19T08:45:16.047Z,3.33
2019-01-19T08:47:48.138Z,2.40
2019-01-19T08:50:24.094Z,2.00
2019-01-19T08:52:56.698Z,2.00
2019-01-19T08:55:31.102Z,2.00
2019-01-19T08:58:03.475Z,4.00
2019-01-19T09:00:38.741Z,1.33
2019-01-19T09:03:12.175Z,3.40
2019-01-19T09:06:01.020Z,2.00
2019-01-19T09:08:32.194Z,2.00
2019-01-19T09:11:03.682Z,4.00
2019-01-19T09:13:35.271Z,3.33
2019-01-19T09:16:15.972Z,3.33
2019-01-19T09:18:51.139Z,4.00
2019-01-19T09:21:34.233Z,0.40
2019-01-19T09:24:17.564Z,3.60
2019-01-19T09:26:59.194Z,4.00
2019-01-19T09:29:26.279Z,4.00
2019-01-19T09:32:02.324Z,3.33
2019-01-19T09:34:36.251Z,6.00
2019-01-19T09:37:10.221Z,4.00
2019-01-19T09:39:43.011Z,4.00
2019-01-19T09:42:14.456Z,4.00
2019-01-19T09:44:50.232Z,4.75
2019-01-19T09:47:24.090Z,3.33
2019-01-19T09:50:02.790Z,4.40
2019-01-19T09:52:37.680Z,4.50
2019-01-19T09:55:15.633Z,4.00
2019-01-19T09:57:50.752Z,2.00
2019-01-19T10:00:35.484Z,3.33
2019-01-19T10:03:05.373Z,4.00
2019-01-19T10:05:43.853Z,5.00
2019-01-19T10:08:19.173Z,3.33
2019-01-19T10:10:53.167Z,4.00
2019-01-19T10:13:24.375Z,5.00
2019-01-19T10:16:01.197Z,4.00
2019-01-19T10:18:32.514Z,4.00
2019-01-19T10:21:08.419Z,4.00
2019-01-19T10:23:41.869Z,4.00
2019-01-19T10:26:12.243Z,4.00
2019-01-19T10:28:45.058Z,6.00
2019-01-19T10:31:17.467Z,7.33
2019-01-19T10:33:51.104Z,6.80
2019-01-19T10:36:22.643Z,7.33
2019-01-19T10:38:55.260Z,4.67
2019-01-19T10:41:26.805Z,6.33
2019-01-19T10:44:05.365Z,7.33
2019-01-19T10:46:36.511Z,8.33
2019-01-19T10:49:09.829Z,6.00
2019-01-19T10:51:41.404Z,6.00
2019-01-19T10:54:13.093Z,4.00
2019-01-19T10:56:51.616Z,6.00
2019-01-19T10:59:26.998Z,6.00
2019-01-19T11:01:58.731Z,8.00
2019-01-19T11:04:29.114Z,7.33
2019-01-19T11:07:03.370Z,9.33
2019-01-19T11:09:38.029Z,4.00
2019-01-19T11:12:13.400Z,6.67
2019-01-19T11:14:48.851Z,6.00
2019-01-19T11:17:22.770Z,5.33
2019-01-19T11:19:57.070Z,8.00
2019-01-19T11:22:28.629Z,2.67
2019-01-19T11:24:59.933Z,6.67
2019-01-19T11:27:45.277Z,8.67
2019-01-19T11:30:27.053Z,8.00
2019-01-19T11:32:59.141Z,5.50
2019-01-19T11:35:35.370Z,6.00
2019-01-19T11:38:20.205Z,10.00
2019-01-19T11:40:49.211Z,8.00
2019-01-19T11:43:20.237Z,6.00
2019-01-19T11:45:50.698Z,6.00
2019-01-19T11:48:21.174Z,8.67
2019-01-19T11:50:52.442Z,8.00
2019-01-19T11:53:24.361Z,8.00
2019-01-19T11:55:58.246Z,8.00
2019-01-19T11:58:34.695Z,10.00
2019-01-19T12:01:08.644Z,10.00
2019-01-19T12:03:41.197Z,8.00
2019-01-19T12:06:14.298Z,8.00
2019-01-19T12:08:48.652Z,6.00
2019-01-19T12:11:22.067Z,8.00
2019-01-19T12:13:55.473Z,9.33
2019-01-19T12:16:27.150Z,8.00
2019-01-19T12:19:04.471Z,7.33
2019-01-19T12:21:42.756Z,6.67
2019-01-19T12:24:13.941Z,10.67
2019-01-19T12:26:44.393Z,8.00
2019-01-19T12:29:23.221Z,10.00
2019-01-19T12:31:56.181Z,8.00
2019-01-19T12:34:34.896Z,8.00
2019-01-19T12:37:15.341Z,8.00
2019-01-19T12:39:49.518Z,8.00
2019-01-19T12:42:27.353Z,8.00
2019-01-19T12:44:58.704Z,8.00
2019-01-19T12:47:46.228Z,4.67
2019-01-19T12:50:52.561Z,8.00
2019-01-19T12:53:30.570Z,8.67
2019-01-19T12:57:08.283Z,6.67
2019-01-19T13:00:08.021Z,8.00
2019-01-19T13:02:56.754Z,6.00
2019-01-19T13:05:55.405Z,5.33
2019-01-19T13:08:34.562Z,11.33
2019-01-19T13:12:21.098Z,6.67
2019-01-19T13:15:27.968Z,8.00
2019-01-19T13:18:43.504Z,7.33
2019-01-19T13:22:03.223Z,8.00
2019-01-19T13:24:59.096Z,8.00
2019-01-19T13:27:51.281Z,6.00
2019-01-19T13:31:12.522Z,8.00
2019-01-19T13:34:32.495Z,6.00
2019-01-19T13:37:49.277Z,6.40
2019-01-19T13:40:58.475Z,7.33
2019-01-19T13:44:21.018Z,5.00
2019-01-19T13:47:22.272Z,9.00
2019-01-19T13:50:46.269Z,7.33
2019-01-19T13:53:50.376Z,6.50
2019-01-19T13:57:10.047Z,2.67
2019-01-19T14:00:43.659Z,4.00
2019-01-19T14:03:40.423Z,7.33
2019-01-19T14:07:12.703Z,4.00
2019-01-19T14:10:18.295Z,6.00
2019-01-19T14:13:44.851Z,6.00
2019-01-19T14:16:43.624Z,6.00
2019-01-19T14:19:57.807Z,6.00
2019-01-19T14:23:09.543Z,7.00
2019-01-19T14:26:49.077Z,8.00
2019-01-19T14:29:49.717Z,9.00
2019-01-19T14:32:50.604Z,6.00
2019-01-19T14:35:38.943Z,6.00
2019-01-19T14:38:37.113Z,4.00
2019-01-19T14:41:48.471Z,4.00
2019-01-19T14:45:13.926Z,4.67
2019-01-19T14:48:38.497Z,6.00
2019-01-19T14:52:02.203Z,4.80
2019-01-19T14:55:36.373Z,4.00
2019-01-19T14:58:35.593Z,4.00
2019-01-19T15:01:52.694Z,6.00
2019-01-19T15:05:04.447Z,8.00
2019-01-19T15:07:54.169Z,7.50
2019-01-19T15:11:14.535Z,4.00
2019-01-19T15:14:23.191Z,5.00
2019-01-19T15:17:33.195Z,6.00
2019-01-19T15:20:28.182Z,4.00
2019-01-19T15:23:36.000Z,4.67
2019-01-19T15:27:06.340Z,6.00
2019-01-19T15:30:00.457Z,4.00
2019-01-19T15:33:08.362Z,5.00
2019-01-19T15:36:25.410Z,4.00
2019-01-19T15:39:28.988Z,4.00
2019-01-19T15:42:30.253Z,4.00
2019-01-19T15:45:35.467Z,6.33
2019-01-19T15:49:09.033Z,6.00
2019-01-19T15:53:00.359Z,4.00
2019-01-19T15:56:20.315Z,6.00
2019-01-19T15:59:30.289Z,4.00
2019-01-19T16:02:57.003Z,4.00
2019-01-19T16:06:17.410Z,5.50
2019-01-19T16:09:27.473Z,7.00
2019-01-19T16:12:19.952Z,6.00
2019-01-19T16:15:15.849Z,5.50
2019-01-19T16:18:13.807Z,6.00
2019-01-19T16:21:27.288Z,6.00
2019-01-19T16:24:24.649Z,4.00
2019-01-19T16:27:27.863Z,5.00
2019-01-19T16:30:55.107Z,4.00
2019-01-19T16:33:50.900Z,4.50
2019-01-19T16:37:06.730Z,8.67
2019-01-19T16:40:17.124Z,9.33
2019-01-19T16:43:31.267Z,6.00
2019-01-19T16:46:44.887Z,8.00
2019-01-19T16:49:46.035Z,8.00
2019-01-19T16:52:38.971Z,4.67
2019-01-19T16:55:55.875Z,9.67
2019-01-19T16:58:52.588Z,6.00
2019-01-19T17:02:08.725Z,9.33
2019-01-19T17:05:22.283Z,8.00
2019-01-19T17:08:38.176Z,7.33
2019-01-19T17:11:50.066Z,8.00
2019-01-19T17:15:13.198Z,6.00
2019-01-19T17:18:28.585Z,5.33
2019-01-19T17:21:41.516Z,6.80
2019-01-19T17:25:05.155Z,8.00
2019-01-19T17:28:14.358Z,11.33
2019-01-19T17:31:27.464Z,10.67
2019-01-19T17:34:52.643Z,10.67
2019-01-19T17:37:36.755Z,8.00
2019-01-19T17:40:46.741Z,8.00
2019-01-19T17:43:42.740Z,10.00
2019-01-19T17:47:00.706Z,8.00
2019-01-19T17:50:01.800Z,11.33
2019-01-19T17:53:03.078Z,8.00
2019-01-19T17:56:14.507Z,8.00
2019-01-19T17:59:20.347Z,6.67
2019-01-19T18:02:35.095Z,10.00
2019-01-19T18:05:50.140Z,8.00
2019-01-19T18:08:47.526Z,7.33
2019-01-19T18:11:56.430Z,7.33
2019-01-19T18:15:16.748Z,8.00
2019-01-19T18:18:26.285Z,9.33
2019-01-19T18:21:27.171Z,8.67
2019-01-19T18:24:26.073Z,10.67
2019-01-19T18:27:45.736Z,11.33
2019-01-19T18:30:40.325Z,12.00
2019-01-19T18:33:44.519Z,10.00
2019-01-19T18:36:54.686Z,12.67
2019-01-19T18:39:57.164Z,17.33
2019-01-19T18:43:09.182Z,14.00
2019-01-19T18:46:13.714Z,10.00
2019-01-19T18:49:21.580Z,8.00
2019-01-19T18:52:39.231Z,8.67
2019-01-19T18:55:47.492Z,6.00
2019-01-19T18:59:06.033Z,8.67
2019-01-19T19:02:17.001Z,8.00
2019-01-19T19:05:35.122Z,9.33
2019-01-19T19:08:31.223Z,12.67
2019-01-19T19:11:54.787Z,12.00
2019-01-19T19:14:35.102Z,8.67
2019-01-19T19:17:57.558Z,8.00
2019-01-19T19:21:07.691Z,8.00
2019-01-19T19:24:07.670Z,10.00
2019-01-19T19:27:02.764Z,10.00
2019-01-19T19:30:15.101Z,7.33
2019-01-19T19:33:29.757Z,7.33
2019-01-19T19:36:49.428Z,6.00
2019-01-19T19:39:47.221Z,8.00
2019-01-19T19:43:25.977Z,8.00
2019-01-19T19:46:34.770Z,8.00
2019-01-19T19:49:48.401Z,6.67
2019-01-19T19:52:29.624Z,8.00
2019-01-19T19:55:12.531Z,8.00
2019-01-19T19:57:56.713Z,10.00
2019-01-19T20:01:03.608Z,10.67
2019-01-19T20:03:51.938Z,12.67
2019-01-19T20:10:26.051Z,10.00
2019-01-19T20:13:07.350Z,8.00
2019-01-19T20:16:21.261Z,8.00
2019-01-19T20:19:09.292Z,8.00
2019-01-19T20:22:10.965Z,10.00
2019-01-19T20:24:59.608Z,8.67
2019-01-19T20:27:37.231Z,10.00
2019-01-19T20:30:37.463Z,7.33
2019-01-19T20:36:38.301Z,10.67
2019-01-19T20:39:16.197Z,8.00
2019-01-19T20:41:58.394Z,8.00
2019-01-19T20:44:32.542Z,8.67
2019-01-19T20:47:13.944Z,10.00
2019-01-19T20:50:06.531Z,8.00
2019-01-19T20:52:48.224Z,7.33
2019-01-19T20:55:45.929Z,8.00
2019-01-19T20:58:18.324Z,10.00
2019-01-19T21:00:56.078Z,6.00
2019-01-19T21:03:33.035Z,8.67
2019-01-19T21:06:10.172Z,8.00
2019-01-19T21:08:46.778Z,10.00
2019-01-19T21:11:22.378Z,8.00
2019-01-19T21:13:53.496Z,10.00
2019-01-19T21:16:28.010Z,8.67
2019-01-19T21:19:15.828Z,7.33
2019-01-19T21:21:48.573Z,9.00
2019-01-19T21:24:28.930Z,10.67
2019-01-19T21:27:07.703Z,7.33
2019-01-19T21:29:51.968Z,10.00
2019-01-19T21:32:26.104Z,8.00
2019-01-19T21:35:00.244Z,8.67
2019-01-19T21:37:33.475Z,9.33
2019-01-19T21:40:09.184Z,9.33
2019-01-19T21:42:50.164Z,10.00
2019-01-19T21:45:35.312Z,10.00
2019-01-19T21:48:13.537Z,6.67
2019-01-19T21:50:51.627Z,6.67
2019-01-19T21:53:29.779Z,8.00
2019-01-19T21:56:03.234Z,7.33
2019-01-19T21:58:34.446Z,6.00
2019-01-19T22:01:06.788Z,6.00
2019-01-19T22:03:45.839Z,8.00
2019-01-19T22:06:17.057Z,8.00
2019-01-19T22:08:51.350Z,7.33
2019-01-19T22:11:27.720Z,6.67
2019-01-19T22:14:04.140Z,8.00
2019-01-19T22:16:48.835Z,6.67
2019-01-19T22:19:24.529Z,6.50
2019-01-19T22:22:09.345Z,8.00
2019-01-19T22:24:39.661Z,6.00
2019-01-19T22:27:18.219Z,8.00
2019-01-19T22:29:52.100Z,8.67
2019-01-19T22:32:32.655Z,6.67
2019-01-19T22:35:16.119Z,7.33
2019-01-19T22:38:17.369Z,9.33
2019-01-19T22:40:53.679Z,6.00
2019-01-19T22:43:34.060Z,8.00
2019-01-19T22:46:06.132Z,6.00
2019-01-19T22:48:42.674Z,6.00
2019-01-19T22:51:14.560Z,6.00
2019-01-19T22:53:50.284Z,6.00
2019-01-19T22:56:22.804Z,8.00
2019-01-19T22:59:01.912Z,8.00
2019-01-19T23:01:55.205Z,4.50
2019-01-19T23:04:26.887Z,7.33
2019-01-19T23:06:59.179Z,8.00
2019-01-19T23:09:33.922Z,8.00
2019-01-19T23:12:07.781Z,8.67
2019-01-19T23:14:47.446Z,8.00
2019-01-19T23:17:19.412Z,8.00
2019-01-19T23:19:57.786Z,8.00
2019-01-19T23:22:39.639Z,8.00
2019-01-19T23:25:15.113Z,6.00
2019-01-19T23:27:57.241Z,7.00
2019-01-19T23:30:32.344Z,4.00
2019-01-19T23:33:07.172Z,8.00
2019-01-19T23:35:41.438Z,6.67
2019-01-19T23:38:26.114Z,6.00
2019-01-19T23:40:58.032Z,6.00
2019-01-19T23:43:29.354Z,8.00
2019-01-19T23:46:08.862Z,6.00
2019-01-19T23:48:42.955Z,8.67
2019-01-19T23:51:15.353Z,6.50
2019-01-19T23:53:50.851Z,6.67
2019-01-19T23:56:22.846Z,7.00
2019-01-19T23:58:57.175Z,9.33
